Time;durP1;ratioP1;P1;durP2;ratioP2;P2;SDS_P1;SDS_P2;PMS_P1;PMS_P2;Temp;Humidity;BMP_temperature;BMP_pressure;BME280_temperature;BME280_humidity;BME280_pressure;Samples;Min_cycle;Max_cycle;Signal;HPM_P1;HPM_P2
2022/01/18 00:31:05;;;;;;;30.88;3.88;;;5.80;99.90;;;;;;3307419;26;20058;-83
2022/01/18 00:38:53;;;;;;;30.00;3.40;;;5.60;99.90;;;;;;4936406;29;20042;-83
2022/01/18 00:41:21;;;;;;;25.92;3.58;;;5.60;99.90;;;;;;4927388;29;20540;-84
2022/01/18 00:43:50;;;;;;;31.48;3.67;;;5.60;99.90;;;;;;4951561;28;20039;-83
2022/01/18 00:46:17;;;;;;;42.50;3.75;;;5.60;99.90;;;;;;4984760;28;20042;-84
2022/01/18 00:48:43;;;;;;;54.88;7.00;;;5.50;99.90;;;;;;4982726;28;20049;-83
2022/01/18 00:51:12;;;;;;;37.15;4.47;;;5.50;99.90;;;;;;4983473;28;20117;-83
2022/01/18 00:53:42;;;;;;;42.53;4.65;;;5.50;99.90;;;;;;4977734;28;20209;-84
2022/01/18 00:58:51;;;;;;;29.00;3.28;;;5.40;99.90;;;;;;4998605;28;20054;-83
2022/01/18 01:01:18;;;;;;;24.50;3.05;;;5.40;99.90;;;;;;4973146;28;20042;-84
2022/01/18 01:03:44;;;;;;;28.30;3.47;;;5.40;99.90;;;;;;4968120;28;20408;-83
2022/01/18 01:06:10;;;;;;;35.42;3.55;;;5.40;99.90;;;;;;4981986;28;20041;-83
2022/01/18 01:08:36;;;;;;;24.63;3.47;;;5.40;99.90;;;;;;4983219;28;20046;-83
2022/01/18 01:11:04;;;;;;;29.42;4.20;;;5.40;99.90;;;;;;4979613;28;20109;-83
2022/01/18 01:13:30;;;;;;;22.33;4.43;;;5.40;99.90;;;;;;4992300;28;21303;-83
2022/01/18 01:32:50;;;;;;;26.98;2.83;;;5.40;99.90;;;;;;5002907;28;20038;-83
2022/01/18 01:43:24;;;;;;;26.90;2.83;;;5.40;99.90;;;;;;4991926;28;20129;-83
2022/01/18 01:45:51;;;;;;;40.72;5.38;;;5.40;99.90;;;;;;4972776;28;20064;-83
2022/01/18 01:48:22;;;;;;;42.33;4.00;;;5.40;99.90;;;;;;4987106;28;20046;-83
2022/01/18 01:51:02;;;;;;;32.70;3.60;;;5.40;99.90;;;;;;4987625;28;20116;-83
2022/01/18 01:53:28;;;;;;;23.58;2.97;;;5.40;99.90;;;;;;4989373;28;20506;-83
2022/01/18 01:55:53;;;;;;;32.70;3.83;;;5.40;99.90;;;;;;4976735;28;20053;-83
2022/01/18 01:58:21;;;;;;;29.90;4.25;;;5.40;99.90;;;;;;4990655;28;20414;-83
2022/01/18 02:00:52;;;;;;;26.95;3.00;;;5.40;99.90;;;;;;4972217;28;20503;-83
2022/01/18 02:03:18;;;;;;;44.63;5.28;;;5.40;99.90;;;;;;4972318;28;20057;-83
2022/01/18 02:05:44;;;;;;;46.15;5.80;;;5.40;99.90;;;;;;4996312;28;20042;-83
2022/01/18 02:08:11;;;;;;;39.50;3.80;;;5.40;99.90;;;;;;4989422;28;20632;-83
2022/01/18 02:10:39;;;;;;;22.90;3.63;;;5.40;99.90;;;;;;4990339;28;20055;-83
2022/01/18 02:13:06;;;;;;;24.50;2.88;;;5.40;99.90;;;;;;4986483;28;20034;-83
2022/01/18 02:15:36;;;;;;;47.72;4.88;;;5.40;99.90;;;;;;4984710;28;20052;-83
2022/01/18 02:23:31;;;;;;;47.90;5.05;;;5.50;99.90;;;;;;5003110;28;20050;-83
2022/01/18 02:25:57;;;;;;;71.00;6.30;;;5.50;99.90;;;;;;4971347;28;20038;-83
2022/01/18 02:28:25;;;;;;;52.67;5.05;;;5.50;99.90;;;;;;5003185;28;20053;-83
2022/01/18 02:30:51;;;;;;;46.13;5.22;;;5.50;99.90;;;;;;4973762;28;20054;-83
2022/01/18 02:33:17;;;;;;;71.78;5.70;;;5.50;99.90;;;;;;5003638;28;20513;-83
2022/01/18 02:35:45;;;;;;;56.45;5.63;;;5.50;99.90;;;;;;4971557;28;20103;-83
2022/01/18 02:38:11;;;;;;;36.47;4.63;;;5.50;99.90;;;;;;4987895;28;20068;-83
2022/01/18 02:40:37;;;;;;;67.45;5.25;;;5.50;99.90;;;;;;4988864;28;20101;-84
2022/01/18 02:45:51;;;;;;;114.93;7.70;;;5.50;99.90;;;;;;4989845;28;20042;-83
2022/01/18 02:48:17;;;;;;;94.32;8.23;;;5.50;99.90;;;;;;4989545;28;20152;-83
2022/01/18 02:50:43;;;;;;;57.33;4.43;;;5.50;99.90;;;;;;4988227;28;20188;-83
2022/01/18 02:53:08;;;;;;;56.95;5.85;;;5.50;99.90;;;;;;4987824;28;20046;-83
2022/01/18 02:55:34;;;;;;;132.52;9.25;;;5.50;99.90;;;;;;4989391;28;20060;-84
2022/01/18 02:58:07;;;;;;;59.42;3.90;;;5.60;99.90;;;;;;4974342;28;20037;-84
2022/01/18 03:03:21;;;;;;;47.72;4.68;;;5.60;99.90;;;;;;5005533;28;20043;-83
2022/01/18 03:05:47;;;;;;;114.97;7.07;;;5.60;99.90;;;;;;5006465;28;20502;-83
2022/01/18 03:08:13;;;;;;;103.90;7.38;;;5.60;99.90;;;;;;4988144;28;20029;-83
2022/01/18 03:10:40;;;;;;;124.18;7.53;;;5.50;99.90;;;;;;4987752;28;20408;-84
2022/01/18 03:13:07;;;;;;;84.95;5.07;;;5.50;99.90;;;;;;4989838;28;20046;-83
2022/01/18 03:15:34;;;;;;;60.47;4.68;;;5.50;99.90;;;;;;4988631;28;20042;-83
2022/01/18 03:18:07;;;;;;;58.45;3.97;;;5.50;99.90;;;;;;4965994;28;20045;-83
2022/01/18 03:20:33;;;;;;;55.90;5.22;;;5.50;99.90;;;;;;4971881;28;20119;-83
2022/01/18 03:22:59;;;;;;;39.78;2.70;;;5.50;99.90;;;;;;4975837;28;20041;-83
2022/01/18 03:28:04;;;;;;;108.57;7.00;;;5.40;99.90;;;;;;4989801;28;20104;-84
2022/01/18 03:30:42;;;;;;;69.45;5.15;;;5.50;99.90;;;;;;4989286;28;20057;-83
2022/01/18 03:33:12;;;;;;;68.35;4.03;;;5.40;99.90;;;;;;4982862;28;20049;-83
2022/01/18 03:35:38;;;;;;;68.03;6.07;;;5.40;99.90;;;;;;4990116;28;20096;-83
2022/01/18 03:38:05;;;;;;;28.30;2.80;;;5.40;99.90;;;;;;4972777;28;20111;-83
2022/01/18 03:40:31;;;;;;;77.25;5.32;;;5.40;99.90;;;;;;4988491;28;20057;-83
2022/01/18 03:42:58;;;;;;;35.30;3.20;;;5.40;99.90;;;;;;4988142;28;20042;-83
2022/01/18 03:45:29;;;;;;;79.60;6.07;;;5.30;99.90;;;;;;4989147;28;21896;-83
2022/01/18 03:47:57;;;;;;;74.88;6.22;;;5.30;99.90;;;;;;4987660;28;20038;-83
2022/01/18 03:50:23;;;;;;;34.15;3.80;;;5.30;99.90;;;;;;4971420;28;20483;-84
2022/01/18 03:52:50;;;;;;;59.70;3.72;;;5.30;99.90;;;;;;4981016;28;20176;-83
2022/01/18 03:55:18;;;;;;;74.72;5.43;;;5.30;99.90;;;;;;4987783;28;20105;-83
2022/01/18 03:57:43;;;;;;;45.35;4.28;;;5.30;99.90;;;;;;4978788;28;21481;-83
2022/01/18 04:00:21;;;;;;;78.28;4.88;;;5.30;99.90;;;;;;4988227;28;20495;-83
2022/01/18 04:02:47;;;;;;;35.75;4.10;;;5.20;99.90;;;;;;4987937;28;20127;-83
2022/01/18 04:05:13;;;;;;;80.25;6.57;;;5.20;99.90;;;;;;5003135;28;20046;-83
2022/01/18 04:07:39;;;;;;;40.33;4.78;;;5.20;99.90;;;;;;4995913;28;20049;-84
2022/01/18 04:10:07;;;;;;;117.13;7.90;;;5.30;99.90;;;;;;4988106;28;20049;-83
2022/01/18 04:12:34;;;;;;;95.40;6.45;;;5.30;99.90;;;;;;4993142;28;20037;-83
2022/01/18 04:15:01;;;;;;;146.45;9.95;;;5.20;99.90;;;;;;4988157;28;20061;-83
2022/01/18 04:28:50;;;;;;;56.17;3.97;;;5.30;99.90;;;;;;4987575;28;20045;-83
2022/01/18 04:30:56;;;;;;;47.13;5.22;;;5.30;99.90;;;;;;4989017;28;20499;-83
2022/01/18 04:33:22;;;;;;;99.22;8.93;;;5.30;99.90;;;;;;4980485;28;20104;-83
2022/01/18 04:35:48;;;;;;;87.30;6.35;;;5.30;99.90;;;;;;4972609;28;20040;-83
2022/01/18 04:38:14;;;;;;;96.97;5.57;;;5.30;99.90;;;;;;4986344;28;20096;-83
2022/01/18 04:40:43;;;;;;;64.63;5.60;;;5.20;99.90;;;;;;4988069;28;20080;-83
2022/01/18 04:43:18;;;;;;;52.92;4.30;;;5.30;99.90;;;;;;4960579;28;20385;-83
2022/01/18 04:48:34;;;;;;;53.65;4.38;;;5.20;99.90;;;;;;4985897;28;20041;-83
2022/01/18 04:51:08;;;;;;;54.05;4.63;;;5.20;99.90;;;;;;4987898;28;20038;-83
2022/01/18 04:53:41;;;;;;;45.08;4.25;;;5.30;99.90;;;;;;4985720;28;20042;-83
2022/01/18 04:56:11;;;;;;;63.63;5.00;;;5.20;99.90;;;;;;4975280;28;20046;-83
2022/01/18 04:58:37;;;;;;;49.35;4.20;;;5.20;99.90;;;;;;4969150;28;20057;-83
2022/01/18 05:01:05;;;;;;;34.40;3.03;;;5.20;99.90;;;;;;4999794;28;20042;-83
2022/01/18 05:03:31;;;;;;;82.85;4.80;;;5.10;99.90;;;;;;4978335;28;20041;-83
2022/01/18 05:06:08;;;;;;;36.67;4.22;;;5.10;99.90;;;;;;4985364;28;20132;-84
2022/01/18 05:08:34;;;;;;;69.70;6.95;;;5.10;99.90;;;;;;4966271;28;20052;-83
2022/01/18 05:10:59;;;;;;;47.67;4.03;;;5.10;99.90;;;;;;4971495;28;20041;-83
2022/01/18 05:16:49;;;;;;;50.20;4.85;;;5.00;99.90;;;;;;4990889;28;20132;-83
2022/01/18 05:19:02;;;;;;;44.28;3.67;;;5.00;99.90;;;;;;4982854;28;20207;-83
2022/01/18 05:21:35;;;;;;;35.30;4.78;;;5.00;99.90;;;;;;4979309;28;20042;-83
2022/01/18 05:24:02;;;;;;;54.55;4.47;;;5.00;99.90;;;;;;4991508;28;20048;-83
2022/01/18 05:26:29;;;;;;;50.42;5.85;;;5.00;99.90;;;;;;5007284;28;20037;-83
2022/01/18 05:28:57;;;;;;;36.80;5.13;;;5.00;99.90;;;;;;4991698;28;20054;-83
2022/01/18 05:31:23;;;;;;;51.75;4.75;;;5.00;99.90;;;;;;4991360;28;20077;-83
2022/01/18 05:33:49;;;;;;;21.73;3.33;;;5.00;99.90;;;;;;4982960;28;20061;-83
2022/01/18 05:36:15;;;;;;;18.85;3.47;;;5.10;99.90;;;;;;4990392;28;20372;-83
2022/01/18 05:38:40;;;;;;;18.52;4.15;;;5.10;99.90;;;;;;4987757;28;20522;-84
2022/01/18 05:41:09;;;;;;;30.30;4.85;;;5.10;99.90;;;;;;4990545;28;20065;-83
2022/01/18 05:43:35;;;;;;;35.28;5.65;;;5.20;99.90;;;;;;4990324;28;20038;-84
2022/01/18 05:46:01;;;;;;;14.35;3.20;;;5.20;99.90;;;;;;4974773;28;20045;-83
2022/01/18 05:48:27;;;;;;;37.55;5.00;;;5.20;99.90;;;;;;4989802;28;20069;-83
2022/01/18 05:50:59;;;;;;;20.35;4.60;;;5.20;99.90;;;;;;4991166;28;20038;-83
2022/01/18 05:53:30;;;;;;;22.27;4.18;;;5.20;99.90;;;;;;4990869;28;20130;-83
2022/01/18 05:57:11;;;;;;;;;;;;;;;;;;;;;
2022/01/18 06:00:08;;;;;;;16.80;4.45;;;5.30;99.90;;;;;;4919937;28;20071;-83
2022/01/18 06:08:21;;;;;;;28.92;4.88;;;5.30;99.90;;;;;;4971866;28;20060;-83
2022/01/18 06:10:49;;;;;;;39.60;5.72;;;5.30;99.90;;;;;;4988772;28;20414;-83
2022/01/18 06:13:34;;;;;;;26.67;5.22;;;5.30;99.90;;;;;;4988614;28;20053;-82
2022/01/18 06:16:03;;;;;;;22.67;4.28;;;5.40;99.90;;;;;;4989339;28;20044;-83
2022/01/18 06:18:29;;;;;;;27.88;5.15;;;5.40;99.90;;;;;;4991217;28;20093;-83
2022/01/18 06:20:55;;;;;;;20.73;4.13;;;5.40;99.90;;;;;;4988501;28;20822;-83
2022/01/18 06:23:21;;;;;;;15.20;3.83;;;5.40;99.90;;;;;;4969530;28;20155;-83
2022/01/18 06:25:47;;;;;;;13.50;3.30;;;5.40;99.90;;;;;;4988354;28;20130;-83
2022/01/18 06:28:12;;;;;;;14.65;3.35;;;5.40;99.90;;;;;;4989843;28;20368;-83
2022/01/18 06:30:38;;;;;;;12.35;3.55;;;5.40;99.90;;;;;;4986598;28;20042;-83
2022/01/18 06:33:04;;;;;;;11.73;3.10;;;5.40;99.90;;;;;;5004084;28;20064;-83
2022/01/18 06:35:30;;;;;;;18.83;3.33;;;5.40;99.90;;;;;;4980167;28;20050;-83
2022/01/18 06:37:56;;;;;;;19.65;3.47;;;5.40;99.90;;;;;;4987173;28;20049;-83
2022/01/18 06:40:22;;;;;;;15.88;3.25;;;5.40;99.90;;;;;;4983844;28;20046;-83
2022/01/18 06:42:47;;;;;;;16.60;3.28;;;5.50;99.90;;;;;;4988123;28;20088;-83
2022/01/18 06:45:13;;;;;;;9.57;2.92;;;5.40;99.90;;;;;;4986875;28;20424;-83
2022/01/18 06:47:39;;;;;;;13.23;3.38;;;5.40;99.90;;;;;;4988158;28;20042;-83
2022/01/18 06:50:06;;;;;;;18.65;4.22;;;5.40;99.90;;;;;;4975916;28;20359;-83
2022/01/18 06:52:32;;;;;;;14.65;3.30;;;5.40;99.90;;;;;;4992297;28;20042;-83
2022/01/18 06:54:57;;;;;;;15.00;3.15;;;5.40;99.90;;;;;;4986797;28;20064;-83
2022/01/18 06:57:23;;;;;;;18.00;3.90;;;5.40;99.90;;;;;;4972109;28;20102;-83
2022/01/18 06:59:49;;;;;;;13.65;2.83;;;5.40;99.90;;;;;;4989579;28;20042;-83
2022/01/18 07:02:15;;;;;;;16.73;3.58;;;5.40;99.90;;;;;;4992175;28;20053;-84
2022/01/18 07:04:40;;;;;;;31.88;5.40;;;5.40;99.90;;;;;;4992563;28;20038;-86
2022/01/18 07:07:06;;;;;;;27.52;5.95;;;5.40;99.90;;;;;;4991928;28;20109;-83
2022/01/18 07:09:32;;;;;;;35.97;5.63;;;5.40;99.90;;;;;;5000248;28;20115;-83
2022/01/18 07:12:00;;;;;;;40.25;5.85;;;5.40;99.90;;;;;;4993390;28;20496;-84
2022/01/18 07:14:26;;;;;;;11.70;3.40;;;5.40;99.90;;;;;;4982068;28;20571;-82
2022/01/18 07:16:51;;;;;;;25.98;5.18;;;5.30;99.90;;;;;;4993700;28;20476;-83
2022/01/18 07:19:17;;;;;;;27.10;5.45;;;5.40;99.90;;;;;;4993964;28;20100;-83
2022/01/18 07:21:43;;;;;;;40.25;6.35;;;5.40;99.90;;;;;;4989836;28;20037;-82
2022/01/18 07:24:28;;;;;;;25.10;4.80;;;5.40;99.90;;;;;;4997514;28;20041;-83
2022/01/18 07:26:53;;;;;;;23.23;4.68;;;5.30;99.90;;;;;;4992691;28;20038;-83
2022/01/18 07:29:19;;;;;;;13.13;4.47;;;5.30;99.90;;;;;;4982841;28;20036;-83
2022/01/18 07:31:45;;;;;;;27.33;4.63;;;5.30;99.90;;;;;;4989427;28;20092;-83
2022/01/18 07:34:14;;;;;;;22.65;5.45;;;5.30;99.90;;;;;;4962115;28;20053;-83
2022/01/18 07:36:39;;;;;;;22.10;4.60;;;5.30;99.90;;;;;;4987182;28;20837;-83
2022/01/18 07:39:05;;;;;;;17.60;4.07;;;5.30;99.90;;;;;;4988187;28;20057;-84
2022/01/18 07:41:30;;;;;;;22.35;4.30;;;5.30;99.90;;;;;;4989090;28;20041;-83
2022/01/18 07:43:56;;;;;;;14.57;3.63;;;5.30;99.90;;;;;;4989362;28;20042;-84
2022/01/18 07:46:22;;;;;;;15.73;3.58;;;5.30;99.90;;;;;;4991831;28;20045;-83
2022/01/18 07:48:47;;;;;;;17.02;3.50;;;5.30;99.90;;;;;;4986715;28;20042;-83
2022/01/18 07:51:13;;;;;;;20.02;4.15;;;5.30;99.90;;;;;;4969245;28;20053;-83
2022/01/18 07:53:39;;;;;;;17.90;4.55;;;5.30;99.90;;;;;;4973121;28;20038;-83
2022/01/18 07:56:04;;;;;;;20.23;4.47;;;5.30;99.90;;;;;;4991072;28;20037;-83
2022/01/18 07:58:30;;;;;;;20.92;4.32;;;5.30;99.90;;;;;;4990292;28;20545;-83
2022/01/18 08:00:57;;;;;;;15.82;4.43;;;5.30;99.90;;;;;;4976198;28;20479;-83
2022/01/18 08:03:22;;;;;;;21.40;4.32;;;5.30;99.90;;;;;;4969778;28;20247;-83
2022/01/18 08:05:51;;;;;;;15.88;3.88;;;5.30;99.90;;;;;;4986454;28;20046;-83
2022/01/18 08:08:17;;;;;;;21.63;4.65;;;5.30;99.90;;;;;;4983920;28;20056;-83
2022/01/18 08:10:42;;;;;;;26.98;5.43;;;5.30;99.90;;;;;;4987169;28;20484;-83
2022/01/18 08:13:08;;;;;;;26.52;6.07;;;5.30;99.90;;;;;;4985644;28;20038;-83
2022/01/18 08:15:39;;;;;;;23.40;5.72;;;5.30;99.90;;;;;;4989739;28;20414;-83
2022/01/18 08:18:08;;;;;;;19.85;4.43;;;5.30;99.90;;;;;;4981662;28;20092;-83
2022/01/18 08:20:33;;;;;;;15.95;3.67;;;5.30;99.90;;;;;;4988872;28;20038;-83
2022/01/18 08:22:59;;;;;;;13.52;4.10;;;5.30;99.90;;;;;;4988562;28;20044;-83
2022/01/18 08:25:25;;;;;;;14.68;3.92;;;5.30;99.90;;;;;;4979322;28;20096;-84
2022/01/18 08:27:51;;;;;;;11.65;2.97;;;5.40;99.90;;;;;;4989086;28;20037;-83
2022/01/18 08:30:18;;;;;;;16.65;4.05;;;5.40;99.90;;;;;;4983052;28;20442;-83
2022/01/18 08:32:45;;;;;;;12.75;3.13;;;5.40;99.90;;;;;;5006031;28;20062;-83
2022/01/18 08:35:11;;;;;;;12.43;3.35;;;5.40;99.90;;;;;;4970301;28;20050;-83
2022/01/18 08:37:37;;;;;;;12.85;2.92;;;5.40;99.90;;;;;;4964639;28;20046;-83
2022/01/18 08:40:04;;;;;;;14.77;3.97;;;5.40;99.90;;;;;;4990296;28;20066;-83
2022/01/18 08:42:30;;;;;;;9.57;2.40;;;5.40;99.90;;;;;;4986164;28;20057;-83
2022/01/18 08:44:56;;;;;;;11.65;2.28;;;5.50;99.90;;;;;;4997442;28;20041;-83
2022/01/18 08:47:24;;;;;;;10.30;2.70;;;5.50;99.90;;;;;;4988647;28;20088;-83
2022/01/18 08:49:50;;;;;;;12.20;2.50;;;5.50;99.90;;;;;;4987798;28;20092;-83
2022/01/18 08:52:16;;;;;;;6.38;2.08;;;5.60;99.90;;;;;;4992295;28;20404;-83
2022/01/18 08:54:43;;;;;;;10.82;1.50;;;5.60;99.90;;;;;;4973258;28;20045;-83
2022/01/18 08:57:12;;;;;;;8.75;2.35;;;5.60;99.90;;;;;;4995414;28;20080;-83
2022/01/18 08:59:39;;;;;;;8.00;2.03;;;5.70;99.90;;;;;;4980078;28;20053;-83
2022/01/18 09:02:09;;;;;;;7.68;1.88;;;5.70;99.90;;;;;;4990833;28;20184;-83
2022/01/18 09:04:35;;;;;;;8.65;2.00;;;5.70;99.90;;;;;;4977001;28;20506;-83
2022/01/18 09:07:07;;;;;;;8.93;2.38;;;5.80;99.90;;;;;;4989995;28;20053;-83
2022/01/18 09:09:34;;;;;;;8.67;2.10;;;5.80;99.90;;;;;;4993368;28;20121;-83
2022/01/18 09:11:59;;;;;;;6.05;1.98;;;5.80;99.90;;;;;;4991689;28;20337;-83
2022/01/18 09:14:25;;;;;;;9.70;2.40;;;5.90;99.90;;;;;;4990050;28;20076;-83
2022/01/18 09:16:51;;;;;;;9.45;1.98;;;5.90;99.90;;;;;;5013206;28;20108;-83
2022/01/18 09:19:17;;;;;;;10.27;2.00;;;5.90;99.90;;;;;;4993343;28;20107;-83
2022/01/18 09:21:46;;;;;;;6.95;2.22;;;6.00;99.90;;;;;;4992328;28;20502;-83
2022/01/18 09:24:12;;;;;;;5.97;1.38;;;6.00;99.90;;;;;;4996752;28;20570;-83
2022/01/18 09:26:38;;;;;;;7.13;1.25;;;6.10;99.90;;;;;;4992258;28;20034;-83
2022/01/18 09:29:06;;;;;;;3.15;0.80;;;6.20;99.90;;;;;;4985421;28;20034;-82
2022/01/18 09:31:34;;;;;;;4.43;1.90;;;6.20;99.90;;;;;;4993289;28;20419;-82
2022/01/18 09:33:59;;;;;;;4.75;1.98;;;6.20;99.90;;;;;;4994026;28;20066;-83
2022/01/18 09:36:25;;;;;;;7.80;1.60;;;6.20;99.90;;;;;;4996139;28;20073;-83
2022/01/18 09:38:50;;;;;;;7.43;2.25;;;6.20;99.90;;;;;;4988855;28;20053;-83
2022/01/18 09:41:19;;;;;;;6.60;1.50;;;6.20;99.90;;;;;;4991646;28;20030;-83
2022/01/18 09:43:45;;;;;;;5.47;1.67;;;6.20;99.90;;;;;;4970127;28;20073;-83
2022/01/18 09:46:11;;;;;;;7.18;1.45;;;6.20;99.90;;;;;;4997811;28;20084;-83
2022/01/18 11:38:09;;;;;;;10.27;3.15;;;6.60;99.90;;;;;;2913689;23;20053;-82
2022/01/18 11:40:44;;;;;;;8.85;2.45;;;6.40;99.90;;;;;;4986554;28;20046;-83
2022/01/18 11:43:09;;;;;;;10.35;2.65;;;6.50;99.90;;;;;;4978421;28;20092;-83
2022/01/18 11:45:39;;;;;;;10.57;2.80;;;6.50;99.90;;;;;;4987480;28;20071;-83
2022/01/18 11:48:08;;;;;;;8.05;2.42;;;6.50;99.90;;;;;;4978386;28;20305;-82
2022/01/18 11:50:41;;;;;;;10.40;2.67;;;6.50;99.90;;;;;;4981908;28;20042;-82
2022/01/18 11:53:28;;;;;;;7.45;2.47;;;6.50;99.90;;;;;;4979371;28;20408;-83
2022/01/18 11:56:00;;;;;;;7.75;2.30;;;6.50;99.90;;;;;;4977859;28;20096;-83
2022/01/18 11:58:27;;;;;;;10.18;3.33;;;6.50;99.90;;;;;;4973473;28;20038;-83
2022/01/18 12:00:57;;;;;;;9.50;3.13;;;6.50;99.90;;;;;;4979492;28;20100;-83
2022/01/18 12:03:27;;;;;;;9.30;3.00;;;6.50;99.90;;;;;;4988429;28;20064;-83
2022/01/18 12:05:54;;;;;;;8.60;2.92;;;6.50;99.90;;;;;;4982079;28;20104;-83
2022/01/18 12:08:35;;;;;;;10.63;2.97;;;6.50;99.90;;;;;;4982191;28;20125;-83
2022/01/18 12:11:05;;;;;;;9.00;2.88;;;6.50;99.90;;;;;;4977824;28;20141;-83
2022/01/18 12:13:36;;;;;;;10.40;2.75;;;6.60;99.90;;;;;;4984461;28;20132;-83
2022/01/18 12:16:10;;;;;;;10.50;2.67;;;6.60;99.90;;;;;;4967794;28;20051;-83
2022/01/18 12:18:49;;;;;;;7.85;3.03;;;6.60;99.90;;;;;;4970910;28;20045;-83
2022/01/18 12:21:24;;;;;;;11.25;3.85;;;6.60;99.90;;;;;;4985564;28;20034;-83
2022/01/18 12:23:50;;;;;;;7.72;2.70;;;6.60;99.90;;;;;;4983338;28;20057;-83
2022/01/18 12:26:30;;;;;;;8.98;2.78;;;6.60;99.90;;;;;;4989379;28;20034;-83
2022/01/18 12:30:01;;;;;;;8.63;3.15;;;6.70;99.90;;;;;;4988109;28;20041;-84
2022/01/18 12:32:20;;;;;;;11.73;3.30;;;6.70;99.90;;;;;;4998841;28;20053;-83
2022/01/18 12:34:49;;;;;;;9.80;3.25;;;6.70;99.90;;;;;;4983985;28;20524;-83
2022/01/18 12:37:17;;;;;;;11.55;3.38;;;6.70;99.90;;;;;;4980960;28;20049;-83
2022/01/18 12:40:05;;;;;;;8.60;3.08;;;6.70;99.90;;;;;;4985486;28;20359;-83
2022/01/18 12:45:05;;;;;;;9.32;3.20;;;6.70;99.90;;;;;;4980081;28;20042;-83
2022/01/18 13:53:21;;;;;;;16.92;5.93;;;6.00;99.90;;;;;;519708;26;20472;-83
2022/01/18 13:56:21;;;;;;;;;;;;;;;;;;;;;
2022/01/18 13:59:25;;;;;;;17.58;6.50;;;5.90;99.90;;;;;;5013213;28;20472;-83
2022/01/18 14:02:45;;;;;;;17.73;5.88;;;5.80;99.90;;;;;;5012241;28;20478;-82
2022/01/18 14:05:55;;;;;;;22.08;6.40;;;5.80;99.90;;;;;;5005960;28;20121;-83
2022/01/18 14:08:48;;;;;;;17.80;6.13;;;5.80;99.90;;;;;;5007763;28;20574;-83
2022/01/18 14:11:58;;;;;;;16.23;5.18;;;5.80;99.90;;;;;;5010941;28;20037;-83
2022/01/18 14:14:50;;;;;;;15.98;4.63;;;5.80;99.90;;;;;;5022871;28;20415;-83
2022/01/18 14:20:58;;;;;;;16.90;4.25;;;5.70;99.90;;;;;;5012094;28;20460;-83
2022/01/18 14:27:37;;;;;;;21.48;5.45;;;5.50;99.90;;;;;;5018777;28;20046;-83
2022/01/18 14:34:20;;;;;;;34.50;5.72;;;5.50;99.90;;;;;;5019645;28;20107;-83
2022/01/18 14:37:54;;;;;;;12.45;4.15;;;5.50;99.90;;;;;;5029302;28;20078;-83
2022/01/18 14:41:24;;;;;;;25.73;5.97;;;5.40;99.90;;;;;;5000421;28;20486;-83
2022/01/18 14:44:46;;;;;;;;;;;;;;;;;;;;;
2022/01/18 14:48:00;;;;;;;21.00;7.10;;;5.50;99.90;;;;;;4909043;29;20344;-83
2022/01/18 14:50:46;;;;;;;24.17;6.78;;;5.40;99.90;;;;;;4949412;28;20086;-83
2022/01/18 14:53:19;;;;;;;24.80;6.97;;;5.40;99.90;;;;;;4977698;28;20548;-82
2022/01/18 14:56:06;;;;;;;23.58;7.07;;;5.40;99.90;;;;;;4972035;28;20119;-83
2022/01/18 14:59:23;;;;;;;42.30;8.15;;;5.40;99.90;;;;;;4966074;28;20421;-83
2022/01/18 15:01:52;;;;;;;21.77;6.78;;;5.40;99.90;;;;;;4950224;28;20042;-83
2022/01/18 15:04:25;;;;;;;46.08;10.45;;;5.30;99.90;;;;;;4972082;28;20129;-83
2022/01/18 15:06:56;;;;;;;30.50;9.82;;;5.30;99.90;;;;;;4970985;28;20057;-83
2022/01/18 15:09:29;;;;;;;33.92;8.63;;;5.20;99.90;;;;;;4971325;28;20069;-83
2022/01/18 15:12:20;;;;;;;46.67;9.27;;;5.20;99.90;;;;;;4951172;28;20554;-83
2022/01/18 15:14:51;;;;;;;42.13;7.10;;;5.20;99.90;;;;;;4985496;28;20090;-83
2022/01/18 15:17:34;;;;;;;30.02;7.38;;;5.20;99.90;;;;;;4969349;28;20150;-83
2022/01/18 15:20:34;;;;;;;31.08;7.63;;;5.20;99.90;;;;;;4962064;28;20420;-83
2022/01/18 15:26:59;;;;;;;;;;;;;;;;;;;;;
2022/01/18 15:29:34;;;;;;;18.20;5.53;;;5.20;99.90;;;;;;4965058;28;20066;-83
2022/01/18 15:32:26;;;;;;;46.05;7.75;;;5.10;99.90;;;;;;4966637;28;20532;-83
2022/01/18 15:35:33;;;;;;;67.45;9.05;;;5.10;99.90;;;;;;4983756;28;20113;-82
2022/01/18 15:38:47;;;;;;;53.20;7.47;;;5.00;99.90;;;;;;4905646;29;20044;-82
2022/01/18 15:42:15;;;;;;;28.33;6.43;;;5.00;99.90;;;;;;4874435;29;20044;-82
2022/01/18 15:45:12;;;;;;;32.03;6.72;;;5.00;99.90;;;;;;4847233;29;20037;-82
2022/01/18 15:47:56;;;;;;;98.05;10.90;;;5.00;99.90;;;;;;4901129;29;20044;-82
2022/01/18 15:50:48;;;;;;;;;;;;;;;;;;;;;
2022/01/18 15:53:46;;;;;;;55.78;6.85;;;4.90;99.90;;;;;;4974722;28;20046;-82
2022/01/18 15:57:09;;;;;;;80.43;8.52;;;4.80;99.90;;;;;;4964847;28;20097;-82
2022/01/18 16:00:43;;;;;;;85.05;11.32;;;4.70;99.90;;;;;;4904977;28;20101;-82
2022/01/18 16:03:53;;;;;;;77.07;7.82;;;4.60;99.90;;;;;;4921391;29;20169;-82
2022/01/18 16:10:37;;;;;;;27.83;5.47;;;4.50;99.90;;;;;;4928661;28;20440;-82
2022/01/18 16:14:03;;;;;;;43.50;7.70;;;4.50;99.90;;;;;;4991680;28;20051;-82
2022/01/18 16:17:16;;;;;;;;;;;;;;;;;;;;;
2022/01/18 16:19:46;;;;;;;51.58;7.28;;;4.40;99.90;;;;;;4964476;28;20038;-82
2022/01/18 16:22:14;;;;;;;32.72;6.20;;;4.30;99.90;;;;;;4964267;28;20771;-82
2022/01/18 16:24:39;;;;;;;47.15;7.28;;;4.30;99.90;;;;;;4963452;28;20038;-82
2022/01/18 16:27:05;;;;;;;49.50;6.78;;;4.30;99.90;;;;;;4965762;28;20042;-83
2022/01/18 16:29:31;;;;;;;63.65;8.82;;;4.30;99.90;;;;;;4952254;28;20515;-83
2022/01/18 16:31:57;;;;;;;70.68;9.13;;;4.30;99.90;;;;;;4948638;28;20446;-83
2022/01/18 16:34:23;;;;;;;45.70;7.18;;;4.30;99.90;;;;;;4950157;28;20043;-83
2022/01/18 16:36:50;;;;;;;50.70;7.45;;;4.30;99.90;;;;;;4967962;28;20136;-83
2022/01/18 16:39:16;;;;;;;47.05;8.30;;;4.30;99.90;;;;;;4958687;28;20423;-83
2022/01/18 16:41:42;;;;;;;43.85;8.30;;;4.30;99.90;;;;;;4967405;28;20081;-83
2022/01/18 16:44:09;;;;;;;24.85;6.82;;;4.40;99.90;;;;;;4964202;28;20034;-83
2022/01/18 16:46:35;;;;;;;36.10;7.05;;;4.30;99.90;;;;;;4969509;28;20042;-83
2022/01/18 16:49:02;;;;;;;36.75;8.43;;;4.30;99.90;;;;;;4970661;28;20031;-83
2022/01/18 16:51:28;;;;;;;30.48;7.43;;;4.40;99.90;;;;;;4975330;28;20038;-83
2022/01/18 16:53:53;;;;;;;28.05;7.43;;;4.30;99.90;;;;;;4971995;28;20521;-82
2022/01/18 16:56:19;;;;;;;26.45;7.25;;;4.30;99.90;;;;;;4988978;28;20542;-82
2022/01/18 16:58:50;;;;;;;31.10;8.10;;;4.30;99.90;;;;;;4990273;28;20045;-83
2022/01/18 17:01:20;;;;;;;32.15;7.50;;;4.30;99.90;;;;;;4985692;28;20034;-83
2022/01/18 17:03:46;;;;;;;27.92;8.07;;;4.30;99.90;;;;;;5002632;28;20076;-83
2022/01/18 17:06:12;;;;;;;30.30;7.40;;;4.30;99.90;;;;;;4988423;28;20065;-83
2022/01/18 17:08:38;;;;;;;29.83;7.93;;;4.30;99.90;;;;;;4973591;28;20065;-82
2022/01/18 17:11:03;;;;;;;36.80;8.95;;;4.30;99.90;;;;;;4988529;28;20429;-82
2022/01/18 17:13:29;;;;;;;26.90;8.77;;;4.40;99.90;;;;;;4993253;28;20155;-82
2022/01/18 17:15:55;;;;;;;39.00;9.38;;;4.40;99.90;;;;;;4993172;28;20404;-82
2022/01/18 17:18:20;;;;;;;22.95;8.25;;;4.40;99.90;;;;;;4971337;28;20042;-82
2022/01/18 17:20:47;;;;;;;43.72;10.10;;;4.40;99.90;;;;;;4991657;28;20100;-82
2022/01/18 17:23:13;;;;;;;38.40;9.65;;;4.40;99.90;;;;;;4989031;28;20504;-82
2022/01/18 17:25:39;;;;;;;25.92;8.13;;;4.40;99.90;;;;;;4980965;28;20044;-82
2022/01/18 17:28:08;;;;;;;30.77;9.38;;;4.40;99.90;;;;;;4973397;28;20037;-82
2022/01/18 17:30:34;;;;;;;32.65;8.25;;;4.40;99.90;;;;;;4963281;28;20078;-83
2022/01/18 17:33:00;;;;;;;26.42;8.45;;;4.40;99.90;;;;;;4974134;28;20088;-83
2022/01/18 17:35:26;;;;;;;29.85;8.05;;;4.50;99.90;;;;;;4989772;28;20040;-83
2022/01/18 17:37:52;;;;;;;30.83;8.85;;;4.50;99.90;;;;;;4985426;28;20091;-83
2022/01/18 17:40:17;;;;;;;29.10;8.45;;;4.50;99.90;;;;;;4970522;28;20431;-83
2022/01/18 17:42:49;;;;;;;29.83;8.95;;;4.50;99.90;;;;;;4986527;28;20137;-83
2022/01/18 17:45:17;;;;;;;32.67;9.20;;;4.50;99.90;;;;;;4969486;28;20084;-83
2022/01/18 17:47:43;;;;;;;43.70;9.38;;;4.50;99.90;;;;;;5002936;28;20470;-83
2022/01/18 17:50:09;;;;;;;30.60;9.52;;;4.50;99.90;;;;;;4987263;28;20042;-83
2022/01/18 17:52:35;;;;;;;25.83;7.82;;;4.50;99.90;;;;;;4989493;28;20042;-82
2022/01/18 17:55:01;;;;;;;31.10;8.52;;;4.50;99.90;;;;;;4985485;28;20079;-82
2022/01/18 17:57:27;;;;;;;25.75;7.78;;;4.50;99.90;;;;;;4990653;28;20054;-82
2022/01/18 17:59:52;;;;;;;21.15;7.13;;;4.50;99.90;;;;;;4985691;28;20046;-82
2022/01/18 18:02:18;;;;;;;21.38;6.88;;;4.50;99.90;;;;;;5001950;28;20260;-83
2022/01/18 18:04:43;;;;;;;19.55;6.60;;;4.50;99.90;;;;;;5004185;28;20092;-83
2022/01/18 18:07:09;;;;;;;24.63;6.93;;;4.50;99.90;;;;;;4986021;28;20034;-83
2022/01/18 18:09:35;;;;;;;27.65;6.85;;;4.50;99.90;;;;;;4972260;28;20037;-83
2022/01/18 18:12:01;;;;;;;21.40;6.38;;;4.50;99.90;;;;;;4983297;28;20356;-83
2022/01/18 18:14:28;;;;;;;23.17;7.13;;;4.50;99.90;;;;;;4986165;28;20112;-83
2022/01/18 18:16:54;;;;;;;21.42;6.05;;;4.50;99.90;;;;;;5005316;28;20057;-83